sensor_id;sensor_type;location;lat;lon;timestamp;P1;durP1;ratioP1;P2;durP2;ratioP2
13445;SDS011;6795;51.232;3.764;2023-04-08T00:09:02;21.95;;;7.60;;
13445;SDS011;6795;51.232;3.764;2023-04-08T00:12:27;22.02;;;7.90;;
13445;SDS011;6795;51.232;3.764;2023-04-08T00:15:33;21.88;;;8.80;;
13445;SDS011;6795;51.232;3.764;2023-04-08T00:19:03;15.80;;;9.57;;
13445;SDS011;6795;51.232;3.764;2023-04-08T00:22:05;17.40;;;9.63;;
13445;SDS011;6795;51.232;3.764;2023-04-08T00:33:26;18.27;;;10.48;;
13445;SDS011;6795;51.232;3.764;2023-04-08T00:40:17;21.38;;;8.10;;
13445;SDS011;6795;51.232;3.764;2023-04-08T00:43:32;22.17;;;8.30;;
13445;SDS011;6795;51.232;3.764;2023-04-08T00:47:04;21.58;;;8.73;;
13445;SDS011;6795;51.232;3.764;2023-04-08T00:50:55;19.23;;;8.98;;
13445;SDS011;6795;51.232;3.764;2023-04-08T00:58:16;24.73;;;10.57;;
13445;SDS011;6795;51.232;3.764;2023-04-08T01:23:53;29.20;;;13.15;;
13445;SDS011;6795;51.232;3.764;2023-04-08T01:30:53;24.13;;;12.80;;
13445;SDS011;6795;51.232;3.764;2023-04-08T01:34:27;22.45;;;11.85;;
13445;SDS011;6795;51.232;3.764;2023-04-08T01:37:55;21.63;;;12.35;;
13445;SDS011;6795;51.232;3.764;2023-04-08T01:41:13;26.73;;;12.20;;
13445;SDS011;6795;51.232;3.764;2023-04-08T01:44:37;26.15;;;11.80;;
13445;SDS011;6795;51.232;3.764;2023-04-08T01:59:19;19.75;;;11.68;;
13445;SDS011;6795;51.232;3.764;2023-04-08T02:02:47;25.08;;;11.90;;
13445;SDS011;6795;51.232;3.764;2023-04-08T02:06:59;21.60;;;11.57;;
13445;SDS011;6795;51.232;3.764;2023-04-08T02:10:52;23.83;;;11.52;;
13445;SDS011;6795;51.232;3.764;2023-04-08T02:13:43;21.15;;;11.05;;
13445;SDS011;6795;51.232;3.764;2023-04-08T02:16:56;18.85;;;9.02;;
13445;SDS011;6795;51.232;3.764;2023-04-08T02:20:22;24.27;;;9.85;;
13445;SDS011;6795;51.232;3.764;2023-04-08T02:23:51;17.90;;;8.40;;
13445;SDS011;6795;51.232;3.764;2023-04-08T02:27:02;20.27;;;9.82;;
13445;SDS011;6795;51.232;3.764;2023-04-08T02:30:14;22.15;;;9.43;;
13445;SDS011;6795;51.232;3.764;2023-04-08T02:44:31;19.33;;;11.38;;
13445;SDS011;6795;51.232;3.764;2023-04-08T02:47:57;21.02;;;12.30;;
13445;SDS011;6795;51.232;3.764;2023-04-08T02:51:09;24.08;;;12.07;;
13445;SDS011;6795;51.232;3.764;2023-04-08T02:54:27;19.92;;;11.27;;
13445;SDS011;6795;51.232;3.764;2023-04-08T02:58:03;26.13;;;12.40;;
13445;SDS011;6795;51.232;3.764;2023-04-08T03:01:43;23.00;;;12.07;;
13445;SDS011;6795;51.232;3.764;2023-04-08T03:04:43;22.10;;;12.20;;
13445;SDS011;6795;51.232;3.764;2023-04-08T03:08:12;29.70;;;12.10;;
13445;SDS011;6795;51.232;3.764;2023-04-08T03:15:15;18.80;;;12.23;;
13445;SDS011;6795;51.232;3.764;2023-04-08T03:26:15;26.20;;;12.82;;
13445;SDS011;6795;51.232;3.764;2023-04-08T03:29:27;25.50;;;14.43;;
13445;SDS011;6795;51.232;3.764;2023-04-08T03:32:55;19.98;;;12.85;;
13445;SDS011;6795;51.232;3.764;2023-04-08T03:36:52;24.92;;;12.85;;
13445;SDS011;6795;51.232;3.764;2023-04-08T03:40:25;17.65;;;13.13;;
13445;SDS011;6795;51.232;3.764;2023-04-08T03:50:51;24.63;;;12.93;;
13445;SDS011;6795;51.232;3.764;2023-04-08T03:53:55;27.20;;;12.80;;
13445;SDS011;6795;51.232;3.764;2023-04-08T03:57:23;21.50;;;12.38;;
13445;SDS011;6795;51.232;3.764;2023-04-08T04:00:42;24.40;;;13.13;;
13445;SDS011;6795;51.232;3.764;2023-04-08T04:04:11;24.52;;;12.55;;
13445;SDS011;6795;51.232;3.764;2023-04-08T04:19:34;25.60;;;12.32;;
13445;SDS011;6795;51.232;3.764;2023-04-08T04:22:40;26.30;;;13.65;;
13445;SDS011;6795;51.232;3.764;2023-04-08T04:26:09;21.58;;;12.93;;
13445;SDS011;6795;51.232;3.764;2023-04-08T04:33:22;25.20;;;13.65;;
13445;SDS011;6795;51.232;3.764;2023-04-08T04:55:41;22.05;;;14.43;;
13445;SDS011;6795;51.232;3.764;2023-04-08T04:59:04;26.80;;;14.77;;
13445;SDS011;6795;51.232;3.764;2023-04-08T05:02:29;21.35;;;14.02;;
13445;SDS011;6795;51.232;3.764;2023-04-08T05:05:49;25.60;;;13.25;;
13445;SDS011;6795;51.232;3.764;2023-04-08T05:35:34;21.23;;;12.30;;
13445;SDS011;6795;51.232;3.764;2023-04-08T05:39:30;18.92;;;11.50;;
13445;SDS011;6795;51.232;3.764;2023-04-08T05:46:51;19.77;;;12.52;;
13445;SDS011;6795;51.232;3.764;2023-04-08T05:50:16;23.55;;;13.52;;
13445;SDS011;6795;51.232;3.764;2023-04-08T06:01:41;22.42;;;13.80;;
13445;SDS011;6795;51.232;3.764;2023-04-08T06:04:53;21.48;;;15.45;;
13445;SDS011;6795;51.232;3.764;2023-04-08T06:08:04;30.13;;;12.40;;
13445;SDS011;6795;51.232;3.764;2023-04-08T06:11:16;23.88;;;14.75;;
13445;SDS011;6795;51.232;3.764;2023-04-08T06:15:01;26.30;;;15.30;;
13445;SDS011;6795;51.232;3.764;2023-04-08T06:26:05;24.08;;;13.80;;
13445;SDS011;6795;51.232;3.764;2023-04-08T06:29:19;20.65;;;12.65;;
13445;SDS011;6795;51.232;3.764;2023-04-08T06:33:08;25.20;;;12.52;;
13445;SDS011;6795;51.232;3.764;2023-04-08T06:36:14;27.60;;;13.10;;
13445;SDS011;6795;51.232;3.764;2023-04-08T06:40:05;24.13;;;12.07;;
13445;SDS011;6795;51.232;3.764;2023-04-08T06:51:18;25.95;;;14.02;;
13445;SDS011;6795;51.232;3.764;2023-04-08T06:55:01;21.80;;;12.88;;
13445;SDS011;6795;51.232;3.764;2023-04-08T06:58:29;28.92;;;12.57;;
13445;SDS011;6795;51.232;3.764;2023-04-08T07:01:35;25.27;;;12.85;;
13445;SDS011;6795;51.232;3.764;2023-04-08T07:05:09;19.25;;;12.27;;
13445;SDS011;6795;51.232;3.764;2023-04-08T07:08:42;19.15;;;11.35;;
13445;SDS011;6795;51.232;3.764;2023-04-08T07:12:08;26.75;;;11.70;;
13445;SDS011;6795;51.232;3.764;2023-04-08T07:15:09;27.33;;;12.75;;
13445;SDS011;6795;51.232;3.764;2023-04-08T07:18:32;22.90;;;13.10;;
13445;SDS011;6795;51.232;3.764;2023-04-08T07:22:08;19.67;;;10.75;;
13445;SDS011;6795;51.232;3.764;2023-04-08T07:44:33;16.10;;;11.15;;
13445;SDS011;6795;51.232;3.764;2023-04-08T07:48:53;18.02;;;10.68;;
13445;SDS011;6795;51.232;3.764;2023-04-08T07:51:49;15.57;;;9.98;;
13445;SDS011;6795;51.232;3.764;2023-04-08T07:54:56;16.33;;;9.30;;
13445;SDS011;6795;51.232;3.764;2023-04-08T08:02:23;19.13;;;9.82;;
13445;SDS011;6795;51.232;3.764;2023-04-08T08:05:41;19.67;;;9.32;;
13445;SDS011;6795;51.232;3.764;2023-04-08T08:09:10;15.55;;;8.13;;
13445;SDS011;6795;51.232;3.764;2023-04-08T08:12:39;13.07;;;6.13;;
13445;SDS011;6795;51.232;3.764;2023-04-08T08:16:28;13.90;;;7.28;;
13445;SDS011;6795;51.232;3.764;2023-04-08T08:19:55;15.73;;;6.03;;
13445;SDS011;6795;51.232;3.764;2023-04-08T08:27:28;13.00;;;7.18;;
13445;SDS011;6795;51.232;3.764;2023-04-08T08:30:48;16.13;;;9.05;;
13445;SDS011;6795;51.232;3.764;2023-04-08T08:34:37;22.95;;;10.15;;
13445;SDS011;6795;51.232;3.764;2023-04-08T08:53:11;14.18;;;7.20;;
13445;SDS011;6795;51.232;3.764;2023-04-08T08:56:46;9.43;;;6.80;;
13445;SDS011;6795;51.232;3.764;2023-04-08T09:00:04;14.95;;;7.20;;
13445;SDS011;6795;51.232;3.764;2023-04-08T09:03:40;16.27;;;7.28;;
13445;SDS011;6795;51.232;3.764;2023-04-08T09:11:39;14.57;;;9.15;;
13445;SDS011;6795;51.232;3.764;2023-04-08T09:14:47;17.10;;;7.57;;
13445;SDS011;6795;51.232;3.764;2023-04-08T09:22:09;16.67;;;9.25;;
13445;SDS011;6795;51.232;3.764;2023-04-08T09:29:49;13.80;;;8.55;;
13445;SDS011;6795;51.232;3.764;2023-04-08T09:33:31;18.52;;;9.05;;
13445;SDS011;6795;51.232;3.764;2023-04-08T09:37:07;16.17;;;8.00;;
13445;SDS011;6795;51.232;3.764;2023-04-08T09:40:51;13.10;;;6.72;;
13445;SDS011;6795;51.232;3.764;2023-04-08T09:44:39;8.95;;;5.18;;
13445;SDS011;6795;51.232;3.764;2023-04-08T09:48:27;12.45;;;5.93;;
13445;SDS011;6795;51.232;3.764;2023-04-08T09:52:12;8.50;;;4.47;;
13445;SDS011;6795;51.232;3.764;2023-04-08T09:56:01;10.13;;;4.68;;
13445;SDS011;6795;51.232;3.764;2023-04-08T09:59:13;11.38;;;5.88;;
13445;SDS011;6795;51.232;3.764;2023-04-08T10:02:59;7.63;;;4.32;;
13445;SDS011;6795;51.232;3.764;2023-04-08T10:10:17;9.63;;;6.40;;
13445;SDS011;6795;51.232;3.764;2023-04-08T10:13:29;7.70;;;5.60;;
13445;SDS011;6795;51.232;3.764;2023-04-08T10:16:50;15.95;;;6.43;;
13445;SDS011;6795;51.232;3.764;2023-04-08T10:32:59;10.23;;;7.45;;
13445;SDS011;6795;51.232;3.764;2023-04-08T10:36:18;9.98;;;7.72;;
13445;SDS011;6795;51.232;3.764;2023-04-08T10:43:06;9.55;;;6.57;;
13445;SDS011;6795;51.232;3.764;2023-04-08T10:51:10;14.57;;;8.80;;
13445;SDS011;6795;51.232;3.764;2023-04-08T10:54:50;12.60;;;7.30;;
13445;SDS011;6795;51.232;3.764;2023-04-08T10:58:07;13.23;;;6.82;;
13445;SDS011;6795;51.232;3.764;2023-04-08T11:10:02;12.32;;;5.95;;
13445;SDS011;6795;51.232;3.764;2023-04-08T11:13:28;11.30;;;7.25;;
13445;SDS011;6795;51.232;3.764;2023-04-08T11:16:42;8.73;;;6.40;;
13445;SDS011;6795;51.232;3.764;2023-04-08T11:19:41;8.73;;;6.15;;
13445;SDS011;6795;51.232;3.764;2023-04-08T11:23:02;10.38;;;6.32;;
13445;SDS011;6795;51.232;3.764;2023-04-08T11:30:01;10.52;;;7.38;;
13445;SDS011;6795;51.232;3.764;2023-04-08T11:33:21;14.63;;;9.82;;
13445;SDS011;6795;51.232;3.764;2023-04-08T11:36:31;15.18;;;9.55;;
13445;SDS011;6795;51.232;3.764;2023-04-08T11:39:37;12.68;;;9.63;;
13445;SDS011;6795;51.232;3.764;2023-04-08T11:46:29;16.55;;;12.50;;
13445;SDS011;6795;51.232;3.764;2023-04-08T11:49:49;16.80;;;11.63;;
13445;SDS011;6795;51.232;3.764;2023-04-08T11:53:17;15.82;;;12.13;;
13445;SDS011;6795;51.232;3.764;2023-04-08T11:56:45;13.13;;;10.65;;
13445;SDS011;6795;51.232;3.764;2023-04-08T12:04:24;14.05;;;10.05;;
13445;SDS011;6795;51.232;3.764;2023-04-08T12:08:18;14.40;;;11.10;;
13445;SDS011;6795;51.232;3.764;2023-04-08T12:11:38;14.70;;;11.38;;
13445;SDS011;6795;51.232;3.764;2023-04-08T12:14:41;14.95;;;11.57;;
13445;SDS011;6795;51.232;3.764;2023-04-08T12:18:23;13.40;;;11.23;;
13445;SDS011;6795;51.232;3.764;2023-04-08T12:21:42;16.75;;;12.90;;
13445;SDS011;6795;51.232;3.764;2023-04-08T12:25:02;13.63;;;11.32;;
13445;SDS011;6795;51.232;3.764;2023-04-08T12:28:21;13.45;;;10.45;;
13445;SDS011;6795;51.232;3.764;2023-04-08T12:31:22;16.30;;;11.85;;
13445;SDS011;6795;51.232;3.764;2023-04-08T12:34:53;12.65;;;9.20;;
13445;SDS011;6795;51.232;3.764;2023-04-08T12:37:56;12.02;;;9.35;;
13445;SDS011;6795;51.232;3.764;2023-04-08T12:41:17;12.30;;;10.07;;
13445;SDS011;6795;51.232;3.764;2023-04-08T12:44:32;12.88;;;10.75;;
13445;SDS011;6795;51.232;3.764;2023-04-08T12:47:29;15.88;;;12.02;;
13445;SDS011;6795;51.232;3.764;2023-04-08T12:50:44;15.88;;;11.95;;
13445;SDS011;6795;51.232;3.764;2023-04-08T12:57:31;13.90;;;11.23;;
13445;SDS011;6795;51.232;3.764;2023-04-08T13:01:02;15.30;;;11.20;;
13445;SDS011;6795;51.232;3.764;2023-04-08T13:04:08;12.07;;;9.80;;
13445;SDS011;6795;51.232;3.764;2023-04-08T13:07:19;10.88;;;9.57;;
13445;SDS011;6795;51.232;3.764;2023-04-08T13:10:38;11.95;;;9.27;;
13445;SDS011;6795;51.232;3.764;2023-04-08T13:14:31;11.73;;;10.43;;
13445;SDS011;6795;51.232;3.764;2023-04-08T13:17:32;15.18;;;10.52;;
13445;SDS011;6795;51.232;3.764;2023-04-08T13:21:20;12.18;;;10.10;;
13445;SDS011;6795;51.232;3.764;2023-04-08T13:24:29;17.40;;;12.18;;
13445;SDS011;6795;51.232;3.764;2023-04-08T13:31:33;16.95;;;12.93;;
13445;SDS011;6795;51.232;3.764;2023-04-08T13:35:09;18.00;;;13.07;;
13445;SDS011;6795;51.232;3.764;2023-04-08T13:38:56;20.65;;;13.48;;
13445;SDS011;6795;51.232;3.764;2023-04-08T13:41:59;16.35;;;12.95;;
13445;SDS011;6795;51.232;3.764;2023-04-08T13:45:42;16.98;;;13.93;;
13445;SDS011;6795;51.232;3.764;2023-04-08T13:49:19;16.15;;;14.20;;
13445;SDS011;6795;51.232;3.764;2023-04-08T13:52:21;18.50;;;15.10;;
13445;SDS011;6795;51.232;3.764;2023-04-08T13:59:14;22.88;;;17.00;;
13445;SDS011;6795;51.232;3.764;2023-04-08T14:06:35;22.02;;;16.23;;
13445;SDS011;6795;51.232;3.764;2023-04-08T14:10:06;19.17;;;16.38;;
13445;SDS011;6795;51.232;3.764;2023-04-08T14:13:14;22.70;;;17.42;;
13445;SDS011;6795;51.232;3.764;2023-04-08T14:17:15;22.80;;;18.88;;
13445;SDS011;6795;51.232;3.764;2023-04-08T14:19:47;23.10;;;18.17;;
13445;SDS011;6795;51.232;3.764;2023-04-08T14:26:02;19.70;;;15.32;;
13445;SDS011;6795;51.232;3.764;2023-04-08T14:29:05;19.75;;;16.63;;
13445;SDS011;6795;51.232;3.764;2023-04-08T14:32:23;23.00;;;17.48;;
13445;SDS011;6795;51.232;3.764;2023-04-08T14:39:47;20.83;;;18.02;;
13445;SDS011;6795;51.232;3.764;2023-04-08T14:43:05;18.35;;;15.85;;
13445;SDS011;6795;51.232;3.764;2023-04-08T14:46:36;20.27;;;15.25;;
13445;SDS011;6795;51.232;3.764;2023-04-08T14:49:46;20.13;;;17.10;;
13445;SDS011;6795;51.232;3.764;2023-04-08T15:04:25;18.52;;;16.20;;
13445;SDS011;6795;51.232;3.764;2023-04-08T15:08:06;18.98;;;15.32;;
13445;SDS011;6795;51.232;3.764;2023-04-08T15:11:09;19.77;;;15.13;;
13445;SDS011;6795;51.232;3.764;2023-04-08T15:14:23;18.38;;;15.82;;
13445;SDS011;6795;51.232;3.764;2023-04-08T15:21:41;21.25;;;17.80;;
13445;SDS011;6795;51.232;3.764;2023-04-08T15:24:51;20.75;;;15.88;;
13445;SDS011;6795;51.232;3.764;2023-04-08T15:31:32;17.50;;;13.90;;
13445;SDS011;6795;51.232;3.764;2023-04-08T15:35:30;17.92;;;16.02;;
13445;SDS011;6795;51.232;3.764;2023-04-08T15:38:48;15.75;;;13.98;;
13445;SDS011;6795;51.232;3.764;2023-04-08T15:41:59;19.10;;;16.10;;
13445;SDS011;6795;51.232;3.764;2023-04-08T15:45:15;18.45;;;16.42;;
13445;SDS011;6795;51.232;3.764;2023-04-08T15:48:29;14.93;;;13.32;;
13445;SDS011;6795;51.232;3.764;2023-04-08T15:56:47;16.13;;;12.90;;
13445;SDS011;6795;51.232;3.764;2023-04-08T16:00:00;13.13;;;11.77;;
13445;SDS011;6795;51.232;3.764;2023-04-08T16:03:37;15.30;;;12.68;;
13445;SDS011;6795;51.232;3.764;2023-04-08T16:07:03;14.77;;;12.27;;
13445;SDS011;6795;51.232;3.764;2023-04-08T16:14:03;14.23;;;11.88;;
13445;SDS011;6795;51.232;3.764;2023-04-08T16:17:11;14.27;;;11.85;;
13445;SDS011;6795;51.232;3.764;2023-04-08T16:20:38;15.10;;;12.90;;
13445;SDS011;6795;51.232;3.764;2023-04-08T16:24:07;15.98;;;13.85;;
13445;SDS011;6795;51.232;3.764;2023-04-08T16:31:30;17.55;;;15.25;;
13445;SDS011;6795;51.232;3.764;2023-04-08T16:34:49;20.92;;;14.88;;
13445;SDS011;6795;51.232;3.764;2023-04-08T16:37:57;18.15;;;14.77;;
13445;SDS011;6795;51.232;3.764;2023-04-08T16:41:02;19.45;;;15.73;;
13445;SDS011;6795;51.232;3.764;2023-04-08T16:48:08;20.10;;;15.65;;
13445;SDS011;6795;51.232;3.764;2023-04-08T16:51:42;21.58;;;16.92;;
13445;SDS011;6795;51.232;3.764;2023-04-08T16:55:06;24.70;;;20.83;;
13445;SDS011;6795;51.232;3.764;2023-04-08T16:58:48;29.35;;;21.98;;
13445;SDS011;6795;51.232;3.764;2023-04-08T17:01:42;26.65;;;20.13;;
13445;SDS011;6795;51.232;3.764;2023-04-08T17:04:43;30.13;;;22.52;;
13445;SDS011;6795;51.232;3.764;2023-04-08T17:08:22;31.15;;;23.45;;
13445;SDS011;6795;51.232;3.764;2023-04-08T17:12:10;31.63;;;21.55;;
13445;SDS011;6795;51.232;3.764;2023-04-08T17:15:18;33.00;;;24.20;;
13445;SDS011;6795;51.232;3.764;2023-04-08T17:25:55;37.05;;;26.02;;
13445;SDS011;6795;51.232;3.764;2023-04-08T17:28:53;33.88;;;23.67;;
13445;SDS011;6795;51.232;3.764;2023-04-08T17:32:25;35.90;;;26.23;;
13445;SDS011;6795;51.232;3.764;2023-04-08T17:36:02;37.05;;;29.23;;
13445;SDS011;6795;51.232;3.764;2023-04-08T17:39:35;35.38;;;27.00;;
13445;SDS011;6795;51.232;3.764;2023-04-08T17:42:40;34.45;;;25.80;;
13445;SDS011;6795;51.232;3.764;2023-04-08T17:49:35;36.47;;;27.42;;
13445;SDS011;6795;51.232;3.764;2023-04-08T17:52:46;42.92;;;29.60;;
13445;SDS011;6795;51.232;3.764;2023-04-08T17:59:30;39.33;;;29.50;;
13445;SDS011;6795;51.232;3.764;2023-04-08T18:02:45;41.78;;;30.38;;
13445;SDS011;6795;51.232;3.764;2023-04-08T18:06:40;41.33;;;29.85;;
13445;SDS011;6795;51.232;3.764;2023-04-08T18:09:46;39.67;;;30.42;;
13445;SDS011;6795;51.232;3.764;2023-04-08T18:12:55;46.30;;;33.17;;
13445;SDS011;6795;51.232;3.764;2023-04-08T18:20:00;45.08;;;32.33;;
13445;SDS011;6795;51.232;3.764;2023-04-08T18:23:18;42.72;;;29.38;;
13445;SDS011;6795;51.232;3.764;2023-04-08T18:27:01;45.50;;;33.55;;
13445;SDS011;6795;51.232;3.764;2023-04-08T18:41:22;51.55;;;36.97;;
13445;SDS011;6795;51.232;3.764;2023-04-08T18:45:03;50.72;;;40.92;;
13445;SDS011;6795;51.232;3.764;2023-04-08T18:47:55;53.95;;;42.58;;
13445;SDS011;6795;51.232;3.764;2023-04-08T18:51:30;52.88;;;43.60;;
13445;SDS011;6795;51.232;3.764;2023-04-08T19:15:15;74.32;;;55.00;;
13445;SDS011;6795;51.232;3.764;2023-04-08T19:22:02;88.65;;;59.70;;
13445;SDS011;6795;51.232;3.764;2023-04-08T19:25:08;86.95;;;59.05;;
13445;SDS011;6795;51.232;3.764;2023-04-08T19:29:01;88.85;;;60.08;;
13445;SDS011;6795;51.232;3.764;2023-04-08T19:32:17;91.93;;;64.53;;
13445;SDS011;6795;51.232;3.764;2023-04-08T19:35:23;94.97;;;67.82;;
13445;SDS011;6795;51.232;3.764;2023-04-08T19:39:07;102.53;;;68.68;;
13445;SDS011;6795;51.232;3.764;2023-04-08T19:42:03;102.55;;;68.57;;
13445;SDS011;6795;51.232;3.764;2023-04-08T19:52:23;109.20;;;72.82;;
13445;SDS011;6795;51.232;3.764;2023-04-08T19:55:28;108.65;;;74.25;;
13445;SDS011;6795;51.232;3.764;2023-04-08T19:59:00;111.82;;;72.18;;
13445;SDS011;6795;51.232;3.764;2023-04-08T20:02:23;112.00;;;74.90;;
13445;SDS011;6795;51.232;3.764;2023-04-08T20:15:50;128.35;;;83.45;;
13445;SDS011;6795;51.232;3.764;2023-04-08T20:18:58;130.98;;;88.13;;
13445;SDS011;6795;51.232;3.764;2023-04-08T20:22:22;129.20;;;86.72;;
13445;SDS011;6795;51.232;3.764;2023-04-08T20:25:46;133.38;;;89.43;;
13445;SDS011;6795;51.232;3.764;2023-04-08T20:33:01;138.35;;;89.82;;
13445;SDS011;6795;51.232;3.764;2023-04-08T20:36:36;140.55;;;89.88;;
13445;SDS011;6795;51.232;3.764;2023-04-08T20:39:52;136.38;;;87.85;;
13445;SDS011;6795;51.232;3.764;2023-04-08T20:43:34;133.30;;;89.18;;
13445;SDS011;6795;51.232;3.764;2023-04-08T20:46:39;148.73;;;94.63;;
13445;SDS011;6795;51.232;3.764;2023-04-08T20:53:33;153.05;;;99.95;;
13445;SDS011;6795;51.232;3.764;2023-04-08T20:57:06;164.95;;;103.78;;
13445;SDS011;6795;51.232;3.764;2023-04-08T21:00:42;157.70;;;101.22;;
13445;SDS011;6795;51.232;3.764;2023-04-08T21:04:01;168.55;;;106.57;;
13445;SDS011;6795;51.232;3.764;2023-04-08T21:11:26;170.20;;;105.55;;
13445;SDS011;6795;51.232;3.764;2023-04-08T21:14:32;165.93;;;103.82;;
13445;SDS011;6795;51.232;3.764;2023-04-08T21:17:25;180.13;;;105.72;;
13445;SDS011;6795;51.232;3.764;2023-04-08T21:23:25;176.38;;;105.35;;
13445;SDS011;6795;51.232;3.764;2023-04-08T21:26:41;174.00;;;105.22;;
13445;SDS011;6795;51.232;3.764;2023-04-08T21:29:28;181.25;;;106.90;;
13445;SDS011;6795;51.232;3.764;2023-04-08T21:32:58;182.25;;;108.57;;
13445;SDS011;6795;51.232;3.764;2023-04-08T21:36:07;193.93;;;114.40;;
13445;SDS011;6795;51.232;3.764;2023-04-08T21:39:18;194.23;;;114.70;;
13445;SDS011;6795;51.232;3.764;2023-04-08T21:42:31;198.43;;;115.60;;
13445;SDS011;6795;51.232;3.764;2023-04-08T21:46:14;196.02;;;109.15;;
13445;SDS011;6795;51.232;3.764;2023-04-08T21:49:17;195.23;;;110.25;;
13445;SDS011;6795;51.232;3.764;2023-04-08T21:52:12;197.25;;;114.88;;
13445;SDS011;6795;51.232;3.764;2023-04-08T21:55:26;179.35;;;102.50;;
13445;SDS011;6795;51.232;3.764;2023-04-08T21:58:35;181.05;;;104.57;;
13445;SDS011;6795;51.232;3.764;2023-04-08T22:01:37;213.07;;;114.63;;
13445;SDS011;6795;51.232;3.764;2023-04-08T22:04:46;198.65;;;114.50;;
13445;SDS011;6795;51.232;3.764;2023-04-08T22:07:58;201.82;;;117.25;;
13445;SDS011;6795;51.232;3.764;2023-04-08T22:11:31;231.77;;;125.63;;
13445;SDS011;6795;51.232;3.764;2023-04-08T22:14:35;214.07;;;119.40;;
13445;SDS011;6795;51.232;3.764;2023-04-08T22:17:35;221.82;;;117.05;;
13445;SDS011;6795;51.232;3.764;2023-04-08T22:21:58;241.50;;;123.18;;
13445;SDS011;6795;51.232;3.764;2023-04-08T22:24:46;213.52;;;117.38;;
13445;SDS011;6795;51.232;3.764;2023-04-08T22:35:36;218.57;;;109.47;;
13445;SDS011;6795;51.232;3.764;2023-04-08T22:38:21;205.05;;;107.57;;
13445;SDS011;6795;51.232;3.764;2023-04-08T22:41:27;242.48;;;113.05;;
13445;SDS011;6795;51.232;3.764;2023-04-08T22:44:47;207.60;;;107.28;;
13445;SDS011;6795;51.232;3.764;2023-04-08T22:48:19;221.00;;;110.70;;
13445;SDS011;6795;51.232;3.764;2023-04-08T22:51:17;216.80;;;103.47;;
13445;SDS011;6795;51.232;3.764;2023-04-08T22:54:54;209.93;;;101.07;;
13445;SDS011;6795;51.232;3.764;2023-04-08T22:58:13;213.55;;;100.78;;
13445;SDS011;6795;51.232;3.764;2023-04-08T23:01:38;193.85;;;98.32;;
13445;SDS011;6795;51.232;3.764;2023-04-08T23:04:37;198.57;;;98.80;;
13445;SDS011;6795;51.232;3.764;2023-04-08T23:08:00;194.27;;;97.07;;
13445;SDS011;6795;51.232;3.764;2023-04-08T23:10:51;187.18;;;96.78;;
13445;SDS011;6795;51.232;3.764;2023-04-08T23:13:51;184.45;;;94.90;;
13445;SDS011;6795;51.232;3.764;2023-04-08T23:17:16;191.43;;;93.13;;
13445;SDS011;6795;51.232;3.764;2023-04-08T23:20:22;184.30;;;93.00;;
13445;SDS011;6795;51.232;3.764;2023-04-08T23:23:24;173.55;;;92.53;;
13445;SDS011;6795;51.232;3.764;2023-04-08T23:26:46;176.80;;;90.70;;
13445;SDS011;6795;51.232;3.764;2023-04-08T23:30:18;184.32;;;90.57;;
13445;SDS011;6795;51.232;3.764;2023-04-08T23:33:40;171.88;;;86.97;;
13445;SDS011;6795;51.232;3.764;2023-04-08T23:36:45;160.15;;;83.43;;
13445;SDS011;6795;51.232;3.764;2023-04-08T23:39:59;153.10;;;77.45;;
13445;SDS011;6795;51.232;3.764;2023-04-08T23:43:49;139.00;;;73.07;;
13445;SDS011;6795;51.232;3.764;2023-04-08T23:47:06;126.88;;;71.47;;
13445;SDS011;6795;51.232;3.764;2023-04-08T23:50:02;123.85;;;68.50;;
